createdAt,value
2023-04-29T00:10:02.573Z,14.88
2023-04-29T00:25:10.072Z,14.73
2023-04-29T00:40:17.699Z,14.65
2023-04-29T00:55:24.489Z,14.38
2023-04-29T01:10:34.371Z,14.34
2023-04-29T01:25:41.090Z,14.26
2023-04-29T01:40:57.356Z,14.29
2023-04-29T01:56:02.871Z,14.29
2023-04-29T02:11:08.816Z,14.13
2023-04-29T02:26:15.647Z,14.05
2023-04-29T02:41:21.375Z,13.93
2023-04-29T02:56:27.033Z,13.95
2023-04-29T03:11:32.734Z,13.80
2023-04-29T03:26:38.321Z,13.82
2023-04-29T03:41:43.781Z,13.80
2023-04-29T03:56:49.544Z,13.56
2023-04-29T04:11:55.117Z,13.63
2023-04-29T04:27:01.358Z,13.56
2023-04-29T04:42:07.238Z,13.70
2023-04-29T04:57:12.931Z,13.83
2023-04-29T05:12:18.543Z,13.91
2023-04-29T05:27:24.087Z,14.12
2023-04-29T05:42:29.728Z,14.30
2023-04-29T05:57:35.371Z,14.60
2023-04-29T06:12:41.035Z,14.78
2023-04-29T06:27:46.596Z,15.11
2023-04-29T06:42:52.574Z,15.58
2023-04-29T06:57:58.277Z,15.95
2023-04-29T07:13:03.826Z,16.40
2023-04-29T07:28:09.830Z,16.47
2023-04-29T07:43:15.893Z,17.66
2023-04-29T07:58:21.352Z,17.00
2023-04-29T08:13:27.085Z,19.38
2023-04-29T08:28:32.730Z,19.50
2023-04-29T08:43:40.899Z,20.64
2023-04-29T08:58:47.144Z,21.09
2023-04-29T09:13:52.813Z,21.92
2023-04-29T09:29:14.366Z,22.46
2023-04-29T09:44:20.535Z,22.53
2023-04-29T09:59:26.696Z,22.33
2023-04-29T10:14:35.146Z,22.71
2023-04-29T10:29:43.079Z,23.30
2023-04-29T10:45:20.330Z,22.98
2023-04-29T11:00:29.490Z,24.18
2023-04-29T11:15:36.648Z,24.15
2023-04-29T11:30:43.123Z,23.25
2023-04-29T11:45:49.055Z,23.77
2023-04-29T12:00:54.508Z,22.95
2023-04-29T12:16:00.999Z,24.16
2023-04-29T12:31:06.640Z,23.80
2023-04-29T12:46:15.075Z,24.21
2023-04-29T13:01:20.964Z,24.48
2023-04-29T13:16:26.754Z,24.19
2023-04-29T13:31:32.522Z,22.82
2023-04-29T13:46:38.476Z,23.75
2023-04-29T14:17:10.811Z,22.37
2023-04-29T14:32:16.435Z,22.94
2023-04-29T14:47:22.174Z,22.18
2023-04-29T15:02:28.355Z,20.93
2023-04-29T15:17:34.194Z,20.40
2023-04-29T15:32:40.038Z,20.22
2023-04-29T15:47:46.738Z,19.74
2023-04-29T16:02:52.682Z,19.27
2023-04-29T16:17:58.321Z,18.65
2023-04-29T16:33:04.045Z,18.53
2023-04-29T16:48:10.266Z,17.88
2023-04-29T17:03:15.781Z,17.78
2023-04-29T17:18:21.313Z,17.51
2023-04-29T17:33:34.157Z,16.87
2023-04-29T17:48:39.844Z,16.02
2023-04-29T18:03:46.891Z,15.58
2023-04-29T18:18:55.971Z,15.13
2023-04-29T18:34:07.602Z,14.67
2023-04-29T18:49:16.399Z,14.48
2023-04-29T19:04:22.092Z,14.42
2023-04-29T19:19:27.902Z,14.03
2023-04-29T19:34:33.725Z,13.91
2023-04-29T19:49:39.466Z,13.66
2023-04-29T20:04:45.296Z,13.47
2023-04-29T20:19:50.943Z,13.38
2023-04-29T20:34:56.918Z,13.23
2023-04-29T20:50:02.511Z,13.09
2023-04-29T21:05:10.424Z,13.09
2023-04-29T21:20:17.336Z,13.14
2023-04-29T21:35:22.736Z,12.96
2023-04-29T21:50:28.325Z,12.84
2023-04-29T22:05:33.942Z,12.58
2023-04-29T22:20:39.620Z,12.52
2023-04-29T22:35:45.310Z,12.47
2023-04-29T22:50:54.630Z,12.50
2023-04-29T23:06:01.152Z,12.46
2023-04-29T23:21:07.490Z,12.51
2023-04-29T23:36:13.057Z,12.40
2023-04-29T23:51:18.486Z,12.10
